sensor_id;sensor_type;location;lat;lon;timestamp;pressure;altitude;pressure_sealevel;temperature;humidity
50696;BME280;36665;51.786;21.594;2023-07-31T00:01:05;95264.20;;;16.76;65.89
50696;BME280;36665;51.786;21.594;2023-07-31T00:09:29;95256.11;;;16.75;65.85
50696;BME280;36665;51.786;21.594;2023-07-31T00:17:52;95272.55;;;16.78;65.86
50696;BME280;36665;51.786;21.594;2023-07-31T00:26:15;95281.05;;;16.80;65.97
50696;BME280;36665;51.786;21.594;2023-07-31T00:34:38;95288.72;;;16.82;66.03
50696;BME280;36665;51.786;21.594;2023-07-31T00:43:01;95281.21;;;16.80;65.88
50696;BME280;36665;51.786;21.594;2023-07-31T00:51:25;95277.33;;;16.79;66.12
50696;BME280;36665;51.786;21.594;2023-07-31T00:59:50;95279.20;;;16.79;65.97
50696;BME280;36665;51.786;21.594;2023-07-31T01:17:07;95301.45;;;16.86;66.17
50696;BME280;36665;51.786;21.594;2023-07-31T01:26:09;95293.26;;;16.84;65.90
50696;BME280;36665;51.786;21.594;2023-07-31T01:34:37;95284.10;;;16.81;66.02
50696;BME280;36665;51.786;21.594;2023-07-31T01:43:03;95286.00;;;16.81;66.26
50696;BME280;36665;51.786;21.594;2023-07-31T01:51:26;95230.18;;;16.68;66.13
50696;BME280;36665;51.786;21.594;2023-07-31T01:59:52;95136.19;;;16.44;65.95
50696;BME280;36665;51.786;21.594;2023-07-31T02:08:16;95068.40;;;16.27;66.13
50696;BME280;36665;51.786;21.594;2023-07-31T02:16:41;95044.81;;;16.21;65.98
50696;BME280;36665;51.786;21.594;2023-07-31T02:25:08;95033.06;;;16.18;65.99
50696;BME280;36665;51.786;21.594;2023-07-31T02:33:31;95045.25;;;16.22;66.14
50696;BME280;36665;51.786;21.594;2023-07-31T02:41:54;95059.34;;;16.25;66.31
50696;BME280;36665;51.786;21.594;2023-07-31T02:50:19;95040.95;;;16.21;66.29
50696;BME280;36665;51.786;21.594;2023-07-31T02:58:42;94998.91;;;16.10;66.39
50696;BME280;36665;51.786;21.594;2023-07-31T03:07:06;94957.04;;;15.99;66.45
50696;BME280;36665;51.786;21.594;2023-07-31T03:15:29;94916.51;;;15.89;66.17
50696;BME280;36665;51.786;21.594;2023-07-31T03:23:53;94880.60;;;15.81;66.21
50696;BME280;36665;51.786;21.594;2023-07-31T03:32:16;94870.23;;;15.79;66.42
50696;BME280;36665;51.786;21.594;2023-07-31T03:40:39;94869.55;;;15.77;66.36
50696;BME280;36665;51.786;21.594;2023-07-31T03:49:02;94861.94;;;15.75;66.22
50696;BME280;36665;51.786;21.594;2023-07-31T03:57:26;94917.34;;;15.89;66.35
50696;BME280;36665;51.786;21.594;2023-07-31T04:05:49;95002.89;;;16.10;66.51
50696;BME280;36665;51.786;21.594;2023-07-31T04:14:12;95121.98;;;16.39;66.53
50696;BME280;36665;51.786;21.594;2023-07-31T04:22:35;95197.30;;;16.58;66.72
50696;BME280;36665;51.786;21.594;2023-07-31T04:30:58;95270.44;;;16.76;66.85
50696;BME280;36665;51.786;21.594;2023-07-31T04:39:21;95400.50;;;17.07;66.76
50696;BME280;36665;51.786;21.594;2023-07-31T04:47:44;95505.19;;;17.33;66.88
50696;BME280;36665;51.786;21.594;2023-07-31T04:56:08;95542.73;;;17.41;67.04
50696;BME280;36665;51.786;21.594;2023-07-31T05:04:30;95569.11;;;17.47;67.09
50696;BME280;36665;51.786;21.594;2023-07-31T05:12:53;95595.45;;;17.54;67.25
50696;BME280;36665;51.786;21.594;2023-07-31T05:21:16;95633.40;;;17.62;67.18
50696;BME280;36665;51.786;21.594;2023-07-31T05:29:42;95731.85;;;17.85;67.32
50696;BME280;36665;51.786;21.594;2023-07-31T05:38:06;95845.38;;;18.13;67.42
50696;BME280;36665;51.786;21.594;2023-07-31T05:46:29;95930.05;;;18.33;67.38
50696;BME280;36665;51.786;21.594;2023-07-31T05:54:54;96005.79;;;18.51;67.46
50696;BME280;36665;51.786;21.594;2023-07-31T06:03:17;96038.32;;;18.58;67.38
50696;BME280;36665;51.786;21.594;2023-07-31T06:11:40;96052.15;;;18.61;67.47
50696;BME280;36665;51.786;21.594;2023-07-31T06:20:04;96058.02;;;18.62;67.49
50696;BME280;36665;51.786;21.594;2023-07-31T06:28:30;96063.33;;;18.63;67.79
50696;BME280;36665;51.786;21.594;2023-07-31T06:36:53;96100.51;;;18.72;67.76
50696;BME280;36665;51.786;21.594;2023-07-31T06:45:16;96154.82;;;18.85;67.59
50696;BME280;36665;51.786;21.594;2023-07-31T06:53:39;96267.85;;;19.11;67.89
50696;BME280;36665;51.786;21.594;2023-07-31T07:02:03;96454.67;;;19.55;67.92
50696;BME280;36665;51.786;21.594;2023-07-31T07:10:28;96731.03;;;20.20;67.99
50696;BME280;36665;51.786;21.594;2023-07-31T07:18:51;97167.99;;;21.21;68.40
50696;BME280;36665;51.786;21.594;2023-07-31T07:27:26;97582.34;;;22.15;68.33
50696;BME280;36665;51.786;21.594;2023-07-31T07:35:49;97949.05;;;22.97;68.70
50696;BME280;36665;51.786;21.594;2023-07-31T07:44:13;98290.91;;;23.73;68.67
50696;BME280;36665;51.786;21.594;2023-07-31T07:52:36;98535.40;;;24.26;68.85
50696;BME280;36665;51.786;21.594;2023-07-31T08:00:59;98638.23;;;24.48;68.88
50696;BME280;36665;51.786;21.594;2023-07-31T08:09:22;98541.16;;;24.25;68.94
50696;BME280;36665;51.786;21.594;2023-07-31T08:17:45;98386.02;;;23.90;69.05
50696;BME280;36665;51.786;21.594;2023-07-31T09:09:29;97878.86;;;22.77;68.78
50696;BME280;36665;51.786;21.594;2023-07-31T09:18:00;97914.23;;;22.84;68.81
50696;BME280;36665;51.786;21.594;2023-07-31T09:26:31;98091.06;;;23.24;68.82
50696;BME280;36665;51.786;21.594;2023-07-31T09:34:54;98282.83;;;23.67;68.79
50696;BME280;36665;51.786;21.594;2023-07-31T09:43:21;98402.20;;;23.94;68.74
50696;BME280;36665;51.786;21.594;2023-07-31T09:51:44;98411.43;;;23.95;68.83
50696;BME280;36665;51.786;21.594;2023-07-31T10:00:08;98396.52;;;23.92;68.89
50696;BME280;36665;51.786;21.594;2023-07-31T10:08:37;98326.48;;;23.76;68.85
50696;BME280;36665;51.786;21.594;2023-07-31T10:17:01;98347.44;;;23.81;68.68
50696;BME280;36665;51.786;21.594;2023-07-31T10:25:26;98495.56;;;24.14;68.77
50696;BME280;36665;51.786;21.594;2023-07-31T10:33:50;98622.52;;;24.42;68.90
50696;BME280;36665;51.786;21.594;2023-07-31T10:42:13;98853.35;;;24.94;68.83
50696;BME280;36665;51.786;21.594;2023-07-31T10:50:38;98919.46;;;25.07;68.69
50696;BME280;36665;51.786;21.594;2023-07-31T10:59:01;98966.08;;;25.18;68.95
50696;BME280;36665;51.786;21.594;2023-07-31T11:07:46;99089.80;;;25.45;68.80
50696;BME280;36665;51.786;21.594;2023-07-31T11:16:10;98892.27;;;25.02;68.63
50696;BME280;36665;51.786;21.594;2023-07-31T11:24:34;98798.14;;;24.81;68.68
50696;BME280;36665;51.786;21.594;2023-07-31T11:32:57;98883.82;;;25.01;68.64
50696;BME280;36665;51.786;21.594;2023-07-31T11:41:21;99010.22;;;25.29;68.67
50696;BME280;36665;51.786;21.594;2023-07-31T11:49:44;98900.23;;;25.05;68.58
50696;BME280;36665;51.786;21.594;2023-07-31T11:58:08;98906.23;;;25.06;68.48
50696;BME280;36665;51.786;21.594;2023-07-31T12:06:36;98830.40;;;24.90;68.37
50696;BME280;36665;51.786;21.594;2023-07-31T12:15:00;98779.45;;;24.79;68.41
50696;BME280;36665;51.786;21.594;2023-07-31T12:23:26;98637.20;;;24.48;68.27
50696;BME280;36665;51.786;21.594;2023-07-31T12:31:52;98475.77;;;24.13;68.32
50696;BME280;36665;51.786;21.594;2023-07-31T12:40:15;98356.13;;;23.86;67.95
50696;BME280;36665;51.786;21.594;2023-07-31T12:48:46;98440.73;;;24.06;67.98
50696;BME280;36665;51.786;21.594;2023-07-31T12:57:08;98415.45;;;24.01;67.91
50696;BME280;36665;51.786;21.594;2023-07-31T13:05:32;98403.73;;;23.99;67.86
50696;BME280;36665;51.786;21.594;2023-07-31T13:13:55;98407.52;;;24.00;67.90
50696;BME280;36665;51.786;21.594;2023-07-31T13:22:17;98348.27;;;23.88;67.76
50696;BME280;36665;51.786;21.594;2023-07-31T13:30:40;98366.98;;;23.92;67.90
50696;BME280;36665;51.786;21.594;2023-07-31T13:39:04;98402.19;;;24.00;67.72
50696;BME280;36665;51.786;21.594;2023-07-31T13:47:26;98338.38;;;23.87;67.63
50696;BME280;36665;51.786;21.594;2023-07-31T13:55:49;98475.75;;;24.18;67.53
50696;BME280;36665;51.786;21.594;2023-07-31T14:04:13;98618.85;;;24.49;67.46
50696;BME280;36665;51.786;21.594;2023-07-31T14:12:36;98613.25;;;24.50;67.42
50696;BME280;36665;51.786;21.594;2023-07-31T14:21:05;98713.59;;;24.73;67.35
50696;BME280;36665;51.786;21.594;2023-07-31T14:29:28;98757.52;;;24.82;67.29
50696;BME280;36665;51.786;21.594;2023-07-31T14:37:50;98545.61;;;24.35;67.26
50696;BME280;36665;51.786;21.594;2023-07-31T14:46:13;98393.56;;;24.02;67.25
50696;BME280;36665;51.786;21.594;2023-07-31T14:54:37;98344.00;;;23.91;67.03
50696;BME280;36665;51.786;21.594;2023-07-31T15:03:00;98394.67;;;24.04;66.86
50696;BME280;36665;51.786;21.594;2023-07-31T15:11:23;98452.38;;;24.17;66.97
50696;BME280;36665;51.786;21.594;2023-07-31T15:19:46;98522.38;;;24.33;67.00
50696;BME280;36665;51.786;21.594;2023-07-31T15:28:09;98517.85;;;24.32;67.09
50696;BME280;36665;51.786;21.594;2023-07-31T15:36:32;98491.88;;;24.28;67.01
50696;BME280;36665;51.786;21.594;2023-07-31T15:44:55;98467.94;;;24.23;66.77
50696;BME280;36665;51.786;21.594;2023-07-31T15:53:19;98427.30;;;24.14;66.61
50696;BME280;36665;51.786;21.594;2023-07-31T16:01:41;98329.64;;;23.93;66.62
50696;BME280;36665;51.786;21.594;2023-07-31T16:10:05;98142.04;;;23.52;66.50
50696;BME280;36665;51.786;21.594;2023-07-31T16:18:31;97950.98;;;23.09;66.49
50696;BME280;36665;51.786;21.594;2023-07-31T16:26:54;97809.58;;;22.77;66.39
50696;BME280;36665;51.786;21.594;2023-07-31T16:35:18;97703.27;;;22.54;66.20
50696;BME280;36665;51.786;21.594;2023-07-31T16:43:41;97667.88;;;22.47;66.33
50696;BME280;36665;51.786;21.594;2023-07-31T16:52:04;97684.64;;;22.50;66.13
50696;BME280;36665;51.786;21.594;2023-07-31T17:00:27;97717.30;;;22.59;66.14
50696;BME280;36665;51.786;21.594;2023-07-31T17:08:51;97739.84;;;22.65;66.06
50696;BME280;36665;51.786;21.594;2023-07-31T17:17:14;97738.36;;;22.65;65.93
50696;BME280;36665;51.786;21.594;2023-07-31T17:25:38;97719.78;;;22.62;65.91
50696;BME280;36665;51.786;21.594;2023-07-31T17:34:02;97660.96;;;22.48;65.71
50696;BME280;36665;51.786;21.594;2023-07-31T17:42:26;97562.33;;;22.26;65.68
50696;BME280;36665;51.786;21.594;2023-07-31T17:50:52;97427.67;;;21.96;65.58
50696;BME280;36665;51.786;21.594;2023-07-31T17:59:16;97309.48;;;21.69;65.40
50696;BME280;36665;51.786;21.594;2023-07-31T18:07:40;97187.83;;;21.42;65.48
50696;BME280;36665;51.786;21.594;2023-07-31T18:16:03;97044.41;;;21.08;65.37
50696;BME280;36665;51.786;21.594;2023-07-31T18:24:27;96893.34;;;20.74;65.21
50696;BME280;36665;51.786;21.594;2023-07-31T18:32:50;96765.96;;;20.44;65.24
50696;BME280;36665;51.786;21.594;2023-07-31T18:41:13;96681.84;;;20.25;65.23
50696;BME280;36665;51.786;21.594;2023-07-31T18:49:36;96608.16;;;20.08;65.02
50696;BME280;36665;51.786;21.594;2023-07-31T18:57:59;96519.14;;;19.87;65.04
50696;BME280;36665;51.786;21.594;2023-07-31T19:06:22;96449.00;;;19.70;64.87
50696;BME280;36665;51.786;21.594;2023-07-31T19:14:46;96382.73;;;19.55;64.95
50696;BME280;36665;51.786;21.594;2023-07-31T19:23:10;96296.23;;;19.35;64.86
50696;BME280;36665;51.786;21.594;2023-07-31T19:31:34;96187.42;;;19.10;64.81
50696;BME280;36665;51.786;21.594;2023-07-31T19:39:57;96055.02;;;18.78;64.58
50696;BME280;36665;51.786;21.594;2023-07-31T19:48:20;95914.40;;;18.45;64.55
50696;BME280;36665;51.786;21.594;2023-07-31T19:56:46;95796.79;;;18.17;64.48
50696;BME280;36665;51.786;21.594;2023-07-31T20:05:11;95699.45;;;17.93;64.31
50696;BME280;36665;51.786;21.594;2023-07-31T20:13:34;95589.98;;;17.66;64.41
50696;BME280;36665;51.786;21.594;2023-07-31T20:21:58;95486.09;;;17.41;64.23
50696;BME280;36665;51.786;21.594;2023-07-31T20:30:22;95390.79;;;17.18;64.25
50696;BME280;36665;51.786;21.594;2023-07-31T20:38:46;95335.89;;;17.05;64.24
50696;BME280;36665;51.786;21.594;2023-07-31T20:47:09;95307.54;;;16.99;64.16
50696;BME280;36665;51.786;21.594;2023-07-31T20:55:32;95281.17;;;16.93;64.05
50696;BME280;36665;51.786;21.594;2023-07-31T21:03:55;95229.44;;;16.80;64.15
50696;BME280;36665;51.786;21.594;2023-07-31T21:12:19;95162.09;;;16.63;63.89
50696;BME280;36665;51.786;21.594;2023-07-31T21:20:46;95114.86;;;16.52;64.05
50696;BME280;36665;51.786;21.594;2023-07-31T21:29:10;95053.79;;;16.38;63.90
50696;BME280;36665;51.786;21.594;2023-07-31T21:37:33;94979.99;;;16.20;63.93
50696;BME280;36665;51.786;21.594;2023-07-31T21:45:58;94918.64;;;16.05;63.96
50696;BME280;36665;51.786;21.594;2023-07-31T21:54:22;94859.90;;;15.90;63.76
50696;BME280;36665;51.786;21.594;2023-07-31T22:02:44;94815.55;;;15.80;63.99
50696;BME280;36665;51.786;21.594;2023-07-31T22:11:08;94779.56;;;15.72;63.78
50696;BME280;36665;51.786;21.594;2023-07-31T22:19:31;94729.30;;;15.59;63.78
50696;BME280;36665;51.786;21.594;2023-07-31T22:27:54;94678.43;;;15.47;63.82
50696;BME280;36665;51.786;21.594;2023-07-31T22:36:26;94628.10;;;15.34;63.51
50696;BME280;36665;51.786;21.594;2023-07-31T22:44:49;94581.18;;;15.22;63.60
50696;BME280;36665;51.786;21.594;2023-07-31T22:53:12;94556.07;;;15.16;63.54
50696;BME280;36665;51.786;21.594;2023-07-31T23:01:36;94529.94;;;15.09;63.43
50696;BME280;36665;51.786;21.594;2023-07-31T23:10:00;94474.09;;;14.96;63.45
50696;BME280;36665;51.786;21.594;2023-07-31T23:18:23;94423.23;;;14.83;63.54
50696;BME280;36665;51.786;21.594;2023-07-31T23:26:46;94375.30;;;14.71;63.37
50696;BME280;36665;51.786;21.594;2023-07-31T23:35:10;94329.00;;;14.60;63.42
50696;BME280;36665;51.786;21.594;2023-07-31T23:43:33;94290.48;;;14.50;63.29
50696;BME280;36665;51.786;21.594;2023-07-31T23:51:57;94279.85;;;14.47;63.34
